sensor_id;sensor_type;location;lat;lon;timestamp;temperature;humidity
1948;DHT22;974;52.400;9.818;2023-08-08T00:00:22;13.30;99.90
1948;DHT22;974;52.400;9.818;2023-08-08T00:02:48;13.30;99.90
1948;DHT22;974;52.400;9.818;2023-08-08T00:05:14;13.40;99.90
1948;DHT22;974;52.400;9.818;2023-08-08T00:07:39;13.40;99.90
1948;DHT22;974;52.400;9.818;2023-08-08T00:10:05;13.30;99.90
1948;DHT22;974;52.400;9.818;2023-08-08T00:12:31;13.30;99.90
1948;DHT22;974;52.400;9.818;2023-08-08T00:14:57;13.30;99.90
1948;DHT22;974;52.400;9.818;2023-08-08T00:17:22;13.30;99.90
1948;DHT22;974;52.400;9.818;2023-08-08T00:19:51;13.30;99.90
1948;DHT22;974;52.400;9.818;2023-08-08T00:22:19;13.30;99.90
1948;DHT22;974;52.400;9.818;2023-08-08T00:24:45;13.30;99.90
1948;DHT22;974;52.400;9.818;2023-08-08T00:27:10;13.30;99.90
1948;DHT22;974;52.400;9.818;2023-08-08T00:29:36;13.30;99.90
1948;DHT22;974;52.400;9.818;2023-08-08T00:32:04;13.30;99.90
1948;DHT22;974;52.400;9.818;2023-08-08T00:34:29;13.30;99.90
1948;DHT22;974;52.400;9.818;2023-08-08T00:36:55;13.30;99.90
1948;DHT22;974;52.400;9.818;2023-08-08T00:39:20;13.30;99.90
1948;DHT22;974;52.400;9.818;2023-08-08T00:41:46;13.30;99.90
1948;DHT22;974;52.400;9.818;2023-08-08T00:44:11;13.30;99.90
1948;DHT22;974;52.400;9.818;2023-08-08T00:46:37;13.40;99.90
1948;DHT22;974;52.400;9.818;2023-08-08T00:49:05;13.30;99.90
1948;DHT22;974;52.400;9.818;2023-08-08T00:51:31;13.30;99.90
1948;DHT22;974;52.400;9.818;2023-08-08T00:54:00;13.30;99.90
1948;DHT22;974;52.400;9.818;2023-08-08T00:56:30;13.30;99.90
1948;DHT22;974;52.400;9.818;2023-08-08T00:58:59;13.30;99.90
1948;DHT22;974;52.400;9.818;2023-08-08T01:01:24;13.40;99.90
1948;DHT22;974;52.400;9.818;2023-08-08T01:03:50;13.30;99.90
1948;DHT22;974;52.400;9.818;2023-08-08T01:06:39;13.40;99.90
1948;DHT22;974;52.400;9.818;2023-08-08T01:09:15;13.30;99.90
1948;DHT22;974;52.400;9.818;2023-08-08T01:11:44;13.30;99.90
1948;DHT22;974;52.400;9.818;2023-08-08T01:14:13;13.30;99.90
1948;DHT22;974;52.400;9.818;2023-08-08T01:16:44;13.30;99.90
1948;DHT22;974;52.400;9.818;2023-08-08T01:19:13;13.30;99.90
1948;DHT22;974;52.400;9.818;2023-08-08T01:21:43;13.40;99.90
1948;DHT22;974;52.400;9.818;2023-08-08T01:24:16;13.40;99.90
1948;DHT22;974;52.400;9.818;2023-08-08T01:26:43;13.40;99.90
1948;DHT22;974;52.400;9.818;2023-08-08T01:29:09;13.40;99.90
1948;DHT22;974;52.400;9.818;2023-08-08T01:31:37;13.40;99.90
1948;DHT22;974;52.400;9.818;2023-08-08T01:34:06;13.40;99.90
1948;DHT22;974;52.400;9.818;2023-08-08T01:36:56;13.40;99.90
1948;DHT22;974;52.400;9.818;2023-08-08T01:39:25;13.50;99.90
1948;DHT22;974;52.400;9.818;2023-08-08T01:41:54;13.40;99.90
1948;DHT22;974;52.400;9.818;2023-08-08T01:44:19;13.40;99.90
1948;DHT22;974;52.400;9.818;2023-08-08T01:46:46;13.40;99.90
1948;DHT22;974;52.400;9.818;2023-08-08T01:49:12;13.40;99.90
1948;DHT22;974;52.400;9.818;2023-08-08T01:51:41;13.40;99.90
1948;DHT22;974;52.400;9.818;2023-08-08T01:54:06;13.50;99.90
1948;DHT22;974;52.400;9.818;2023-08-08T01:56:32;13.50;99.90
1948;DHT22;974;52.400;9.818;2023-08-08T01:58:57;13.50;99.90
1948;DHT22;974;52.400;9.818;2023-08-08T02:01:23;13.50;99.90
1948;DHT22;974;52.400;9.818;2023-08-08T02:03:48;13.50;99.90
1948;DHT22;974;52.400;9.818;2023-08-08T02:06:14;13.50;99.90
1948;DHT22;974;52.400;9.818;2023-08-08T02:08:39;13.50;99.90
1948;DHT22;974;52.400;9.818;2023-08-08T02:11:05;13.50;99.90
1948;DHT22;974;52.400;9.818;2023-08-08T02:13:31;13.50;99.90
1948;DHT22;974;52.400;9.818;2023-08-08T02:15:57;13.50;99.90
1948;DHT22;974;52.400;9.818;2023-08-08T02:18:22;13.60;99.90
1948;DHT22;974;52.400;9.818;2023-08-08T02:20:48;13.60;99.90
1948;DHT22;974;52.400;9.818;2023-08-08T02:23:13;13.50;99.90
1948;DHT22;974;52.400;9.818;2023-08-08T02:25:39;13.50;99.90
1948;DHT22;974;52.400;9.818;2023-08-08T02:28:04;13.60;99.90
1948;DHT22;974;52.400;9.818;2023-08-08T02:30:30;13.50;99.90
1948;DHT22;974;52.400;9.818;2023-08-08T02:32:56;13.50;99.90
1948;DHT22;974;52.400;9.818;2023-08-08T02:35:21;13.50;99.90
1948;DHT22;974;52.400;9.818;2023-08-08T02:37:47;13.50;99.90
1948;DHT22;974;52.400;9.818;2023-08-08T02:40:12;13.50;99.90
1948;DHT22;974;52.400;9.818;2023-08-08T02:42:38;13.50;99.90
1948;DHT22;974;52.400;9.818;2023-08-08T02:45:06;13.50;99.90
1948;DHT22;974;52.400;9.818;2023-08-08T02:47:35;13.60;99.90
1948;DHT22;974;52.400;9.818;2023-08-08T02:50:00;13.60;99.90
1948;DHT22;974;52.400;9.818;2023-08-08T02:52:29;13.60;99.90
1948;DHT22;974;52.400;9.818;2023-08-08T02:54:55;13.60;99.90
1948;DHT22;974;52.400;9.818;2023-08-08T02:57:20;13.60;99.90
1948;DHT22;974;52.400;9.818;2023-08-08T02:59:46;13.60;99.90
1948;DHT22;974;52.400;9.818;2023-08-08T03:02:14;13.60;99.90
1948;DHT22;974;52.400;9.818;2023-08-08T03:04:40;13.60;99.90
1948;DHT22;974;52.400;9.818;2023-08-08T03:07:05;13.60;99.90
1948;DHT22;974;52.400;9.818;2023-08-08T03:09:34;13.60;99.90
1948;DHT22;974;52.400;9.818;2023-08-08T03:11:59;13.60;99.90
1948;DHT22;974;52.400;9.818;2023-08-08T03:14:28;13.60;99.90
1948;DHT22;974;52.400;9.818;2023-08-08T03:16:53;13.60;99.90
1948;DHT22;974;52.400;9.818;2023-08-08T03:19:19;13.60;99.90
1948;DHT22;974;52.400;9.818;2023-08-08T03:21:44;13.60;99.90
1948;DHT22;974;52.400;9.818;2023-08-08T03:24:10;13.70;99.90
1948;DHT22;974;52.400;9.818;2023-08-08T03:26:35;13.70;99.90
1948;DHT22;974;52.400;9.818;2023-08-08T03:29:01;13.70;99.90
1948;DHT22;974;52.400;9.818;2023-08-08T03:31:26;13.70;99.90
1948;DHT22;974;52.400;9.818;2023-08-08T03:33:52;13.70;99.90
1948;DHT22;974;52.400;9.818;2023-08-08T03:36:18;13.80;99.90
1948;DHT22;974;52.400;9.818;2023-08-08T03:38:44;13.80;99.90
1948;DHT22;974;52.400;9.818;2023-08-08T03:41:11;13.80;99.90
1948;DHT22;974;52.400;9.818;2023-08-08T03:43:38;13.80;99.90
1948;DHT22;974;52.400;9.818;2023-08-08T03:46:04;13.80;99.90
1948;DHT22;974;52.400;9.818;2023-08-08T03:48:29;13.80;99.90
1948;DHT22;974;52.400;9.818;2023-08-08T03:50:55;13.80;99.90
1948;DHT22;974;52.400;9.818;2023-08-08T03:53:20;13.80;99.90
1948;DHT22;974;52.400;9.818;2023-08-08T03:55:46;13.80;99.90
1948;DHT22;974;52.400;9.818;2023-08-08T03:58:12;13.80;99.90
1948;DHT22;974;52.400;9.818;2023-08-08T04:00:37;13.80;99.90
1948;DHT22;974;52.400;9.818;2023-08-08T04:03:07;13.80;99.90
1948;DHT22;974;52.400;9.818;2023-08-08T04:05:33;13.80;99.90
1948;DHT22;974;52.400;9.818;2023-08-08T04:08:01;13.90;99.90
1948;DHT22;974;52.400;9.818;2023-08-08T04:10:30;13.80;99.90
1948;DHT22;974;52.400;9.818;2023-08-08T04:12:55;13.80;99.90
1948;DHT22;974;52.400;9.818;2023-08-08T04:15:21;13.90;99.90
1948;DHT22;974;52.400;9.818;2023-08-08T04:17:49;13.90;99.90
1948;DHT22;974;52.400;9.818;2023-08-08T04:20:15;13.90;99.90
1948;DHT22;974;52.400;9.818;2023-08-08T04:22:41;13.90;99.90
1948;DHT22;974;52.400;9.818;2023-08-08T04:25:06;14.00;99.90
1948;DHT22;974;52.400;9.818;2023-08-08T04:27:33;14.00;99.90
1948;DHT22;974;52.400;9.818;2023-08-08T04:29:58;14.00;99.90
1948;DHT22;974;52.400;9.818;2023-08-08T04:32:24;14.00;99.90
1948;DHT22;974;52.400;9.818;2023-08-08T04:34:50;14.00;99.90
1948;DHT22;974;52.400;9.818;2023-08-08T04:37:15;14.00;99.90
1948;DHT22;974;52.400;9.818;2023-08-08T04:39:43;14.00;99.90
1948;DHT22;974;52.400;9.818;2023-08-08T04:42:09;14.00;99.90
1948;DHT22;974;52.400;9.818;2023-08-08T04:44:37;14.00;99.90
1948;DHT22;974;52.400;9.818;2023-08-08T04:47:03;14.00;99.90
1948;DHT22;974;52.400;9.818;2023-08-08T04:49:29;14.00;99.90
1948;DHT22;974;52.400;9.818;2023-08-08T04:51:54;14.00;99.90
1948;DHT22;974;52.400;9.818;2023-08-08T04:54:20;14.00;99.90
1948;DHT22;974;52.400;9.818;2023-08-08T04:56:45;14.00;99.90
1948;DHT22;974;52.400;9.818;2023-08-08T04:59:11;14.00;99.90
1948;DHT22;974;52.400;9.818;2023-08-08T05:01:45;14.10;99.90
1948;DHT22;974;52.400;9.818;2023-08-08T05:04:11;14.10;99.90
1948;DHT22;974;52.400;9.818;2023-08-08T05:06:36;14.10;99.90
1948;DHT22;974;52.400;9.818;2023-08-08T05:09:02;14.10;99.90
1948;DHT22;974;52.400;9.818;2023-08-08T05:11:28;14.10;99.90
1948;DHT22;974;52.400;9.818;2023-08-08T05:13:54;14.10;99.90
1948;DHT22;974;52.400;9.818;2023-08-08T05:16:19;14.20;99.90
1948;DHT22;974;52.400;9.818;2023-08-08T05:18:45;14.20;99.90
1948;DHT22;974;52.400;9.818;2023-08-08T05:21:11;14.10;99.90
1948;DHT22;974;52.400;9.818;2023-08-08T05:23:36;14.20;99.90
1948;DHT22;974;52.400;9.818;2023-08-08T05:26:08;14.20;99.90
1948;DHT22;974;52.400;9.818;2023-08-08T05:28:34;14.20;99.90
1948;DHT22;974;52.400;9.818;2023-08-08T05:30:59;14.20;99.90
1948;DHT22;974;52.400;9.818;2023-08-08T05:33:25;14.20;99.90
1948;DHT22;974;52.400;9.818;2023-08-08T05:35:50;14.20;99.90
1948;DHT22;974;52.400;9.818;2023-08-08T05:38:16;14.20;99.90
1948;DHT22;974;52.400;9.818;2023-08-08T05:40:41;14.30;99.90
1948;DHT22;974;52.400;9.818;2023-08-08T05:43:07;14.30;99.90
1948;DHT22;974;52.400;9.818;2023-08-08T05:45:33;14.30;99.90
1948;DHT22;974;52.400;9.818;2023-08-08T05:47:59;14.30;99.90
1948;DHT22;974;52.400;9.818;2023-08-08T05:50:28;14.40;99.90
1948;DHT22;974;52.400;9.818;2023-08-08T05:52:54;14.40;99.90
1948;DHT22;974;52.400;9.818;2023-08-08T05:55:19;14.40;99.90
1948;DHT22;974;52.400;9.818;2023-08-08T05:57:45;14.50;99.90
1948;DHT22;974;52.400;9.818;2023-08-08T06:00:11;14.50;99.90
1948;DHT22;974;52.400;9.818;2023-08-08T06:02:37;14.50;99.90
1948;DHT22;974;52.400;9.818;2023-08-08T06:05:04;14.50;99.90
1948;DHT22;974;52.400;9.818;2023-08-08T06:07:30;14.50;99.90
1948;DHT22;974;52.400;9.818;2023-08-08T06:09:56;14.50;99.90
1948;DHT22;974;52.400;9.818;2023-08-08T06:12:21;14.60;99.90
1948;DHT22;974;52.400;9.818;2023-08-08T06:14:47;14.60;99.90
1948;DHT22;974;52.400;9.818;2023-08-08T06:17:13;14.70;99.90
1948;DHT22;974;52.400;9.818;2023-08-08T06:19:40;14.60;99.90
1948;DHT22;974;52.400;9.818;2023-08-08T06:22:05;14.70;99.90
1948;DHT22;974;52.400;9.818;2023-08-08T06:24:31;14.70;99.90
1948;DHT22;974;52.400;9.818;2023-08-08T06:26:57;14.70;99.90
1948;DHT22;974;52.400;9.818;2023-08-08T06:29:22;14.70;99.90
1948;DHT22;974;52.400;9.818;2023-08-08T06:31:48;14.70;99.90
1948;DHT22;974;52.400;9.818;2023-08-08T06:34:14;14.70;99.90
1948;DHT22;974;52.400;9.818;2023-08-08T06:36:40;14.80;99.90
1948;DHT22;974;52.400;9.818;2023-08-08T06:39:06;14.80;99.90
1948;DHT22;974;52.400;9.818;2023-08-08T06:41:35;14.80;99.90
1948;DHT22;974;52.400;9.818;2023-08-08T06:44:00;14.80;99.90
1948;DHT22;974;52.400;9.818;2023-08-08T06:46:26;14.80;99.90
1948;DHT22;974;52.400;9.818;2023-08-08T06:48:51;14.80;99.90
1948;DHT22;974;52.400;9.818;2023-08-08T06:51:24;14.80;99.90
1948;DHT22;974;52.400;9.818;2023-08-08T06:53:50;14.90;99.90
1948;DHT22;974;52.400;9.818;2023-08-08T06:56:16;14.90;99.90
1948;DHT22;974;52.400;9.818;2023-08-08T06:58:44;14.90;99.90
1948;DHT22;974;52.400;9.818;2023-08-08T07:01:10;15.00;99.90
1948;DHT22;974;52.400;9.818;2023-08-08T07:03:35;15.00;99.90
1948;DHT22;974;52.400;9.818;2023-08-08T07:06:02;15.10;99.90
1948;DHT22;974;52.400;9.818;2023-08-08T07:08:28;15.20;99.90
1948;DHT22;974;52.400;9.818;2023-08-08T07:10:56;15.20;99.90
1948;DHT22;974;52.400;9.818;2023-08-08T07:13:22;15.30;99.90
1948;DHT22;974;52.400;9.818;2023-08-08T07:15:47;15.30;99.90
1948;DHT22;974;52.400;9.818;2023-08-08T07:18:13;15.30;99.90
1948;DHT22;974;52.400;9.818;2023-08-08T07:20:41;15.40;99.90
1948;DHT22;974;52.400;9.818;2023-08-08T07:23:06;15.40;99.90
1948;DHT22;974;52.400;9.818;2023-08-08T07:25:32;15.50;99.90
1948;DHT22;974;52.400;9.818;2023-08-08T07:27:58;15.50;99.90
1948;DHT22;974;52.400;9.818;2023-08-08T07:30:23;15.50;99.90
1948;DHT22;974;52.400;9.818;2023-08-08T07:32:50;15.60;99.90
1948;DHT22;974;52.400;9.818;2023-08-08T07:35:16;15.60;99.90
1948;DHT22;974;52.400;9.818;2023-08-08T07:37:41;15.70;99.90
1948;DHT22;974;52.400;9.818;2023-08-08T07:40:17;15.70;99.90
1948;DHT22;974;52.400;9.818;2023-08-08T07:42:49;15.80;99.90
1948;DHT22;974;52.400;9.818;2023-08-08T07:45:15;15.80;99.90
1948;DHT22;974;52.400;9.818;2023-08-08T07:47:40;15.80;99.90
1948;DHT22;974;52.400;9.818;2023-08-08T07:50:07;15.80;99.90
1948;DHT22;974;52.400;9.818;2023-08-08T07:52:34;15.80;99.90
1948;DHT22;974;52.400;9.818;2023-08-08T07:55:03;15.90;99.90
1948;DHT22;974;52.400;9.818;2023-08-08T07:57:29;16.00;99.90
1948;DHT22;974;52.400;9.818;2023-08-08T08:00:07;16.00;99.90
1948;DHT22;974;52.400;9.818;2023-08-08T08:02:38;16.00;99.90
1948;DHT22;974;52.400;9.818;2023-08-08T08:05:04;16.00;99.90
1948;DHT22;974;52.400;9.818;2023-08-08T08:07:32;16.00;99.90
1948;DHT22;974;52.400;9.818;2023-08-08T08:09:59;16.10;99.90
1948;DHT22;974;52.400;9.818;2023-08-08T08:12:24;16.10;99.90
1948;DHT22;974;52.400;9.818;2023-08-08T08:14:50;16.10;99.90
1948;DHT22;974;52.400;9.818;2023-08-08T08:17:15;16.00;99.90
1948;DHT22;974;52.400;9.818;2023-08-08T08:19:41;16.10;99.90
1948;DHT22;974;52.400;9.818;2023-08-08T08:22:06;16.10;99.90
1948;DHT22;974;52.400;9.818;2023-08-08T08:24:32;16.20;99.90
1948;DHT22;974;52.400;9.818;2023-08-08T08:27:00;16.30;99.90
1948;DHT22;974;52.400;9.818;2023-08-08T08:29:25;16.40;99.90
1948;DHT22;974;52.400;9.818;2023-08-08T08:31:54;16.30;99.90
1948;DHT22;974;52.400;9.818;2023-08-08T08:34:22;16.40;99.90
1948;DHT22;974;52.400;9.818;2023-08-08T08:36:51;16.40;99.90
1948;DHT22;974;52.400;9.818;2023-08-08T08:39:16;16.50;99.90
1948;DHT22;974;52.400;9.818;2023-08-08T08:41:49;16.60;99.90
1948;DHT22;974;52.400;9.818;2023-08-08T08:44:21;16.60;99.90
1948;DHT22;974;52.400;9.818;2023-08-08T08:46:48;16.70;99.90
1948;DHT22;974;52.400;9.818;2023-08-08T08:49:21;16.70;99.90
1948;DHT22;974;52.400;9.818;2023-08-08T08:51:47;16.80;99.90
1948;DHT22;974;52.400;9.818;2023-08-08T08:54:13;16.80;99.90
1948;DHT22;974;52.400;9.818;2023-08-08T08:56:40;16.70;99.90
1948;DHT22;974;52.400;9.818;2023-08-08T08:59:07;16.70;99.90
1948;DHT22;974;52.400;9.818;2023-08-08T09:01:33;16.70;99.90
1948;DHT22;974;52.400;9.818;2023-08-08T09:04:03;16.70;99.90
1948;DHT22;974;52.400;9.818;2023-08-08T09:06:29;16.70;99.90
1948;DHT22;974;52.400;9.818;2023-08-08T09:08:57;16.60;99.90
1948;DHT22;974;52.400;9.818;2023-08-08T09:11:23;16.60;99.90
1948;DHT22;974;52.400;9.818;2023-08-08T09:13:49;16.60;99.90
1948;DHT22;974;52.400;9.818;2023-08-08T09:16:14;16.70;99.90
1948;DHT22;974;52.400;9.818;2023-08-08T09:18:40;16.70;99.90
1948;DHT22;974;52.400;9.818;2023-08-08T09:21:08;16.70;99.90
1948;DHT22;974;52.400;9.818;2023-08-08T09:23:33;16.80;99.90
1948;DHT22;974;52.400;9.818;2023-08-08T09:26:02;16.80;99.90
1948;DHT22;974;52.400;9.818;2023-08-08T09:28:27;16.90;99.90
1948;DHT22;974;52.400;9.818;2023-08-08T09:30:56;16.90;99.90
1948;DHT22;974;52.400;9.818;2023-08-08T09:33:21;16.90;99.90
1948;DHT22;974;52.400;9.818;2023-08-08T09:35:47;16.80;99.90
1948;DHT22;974;52.400;9.818;2023-08-08T09:38:12;16.70;99.90
1948;DHT22;974;52.400;9.818;2023-08-08T09:40:38;16.70;99.90
1948;DHT22;974;52.400;9.818;2023-08-08T09:43:06;16.70;99.90
1948;DHT22;974;52.400;9.818;2023-08-08T09:45:39;16.70;99.90
1948;DHT22;974;52.400;9.818;2023-08-08T09:48:07;16.70;99.90
1948;DHT22;974;52.400;9.818;2023-08-08T09:50:36;16.70;99.90
1948;DHT22;974;52.400;9.818;2023-08-08T09:53:02;16.70;99.90
1948;DHT22;974;52.400;9.818;2023-08-08T09:55:29;16.80;99.90
1948;DHT22;974;52.400;9.818;2023-08-08T09:57:57;16.80;99.90
1948;DHT22;974;52.400;9.818;2023-08-08T10:00:23;16.70;99.90
1948;DHT22;974;52.400;9.818;2023-08-08T10:02:50;16.70;99.90
1948;DHT22;974;52.400;9.818;2023-08-08T10:05:16;16.70;99.90
1948;DHT22;974;52.400;9.818;2023-08-08T10:07:42;16.70;99.90
1948;DHT22;974;52.400;9.818;2023-08-08T10:10:09;16.60;99.90
1948;DHT22;974;52.400;9.818;2023-08-08T10:12:39;16.50;99.90
1948;DHT22;974;52.400;9.818;2023-08-08T10:15:11;16.40;99.90
1948;DHT22;974;52.400;9.818;2023-08-08T10:17:40;16.20;99.90
1948;DHT22;974;52.400;9.818;2023-08-08T10:20:09;16.10;99.90
1948;DHT22;974;52.400;9.818;2023-08-08T10:22:37;16.00;99.90
1948;DHT22;974;52.400;9.818;2023-08-08T10:25:04;16.00;99.90
1948;DHT22;974;52.400;9.818;2023-08-08T10:27:34;16.10;99.90
1948;DHT22;974;52.400;9.818;2023-08-08T10:30:08;16.30;99.90
1948;DHT22;974;52.400;9.818;2023-08-08T10:32:45;16.30;99.90
1948;DHT22;974;52.400;9.818;2023-08-08T10:35:14;16.40;99.90
1948;DHT22;974;52.400;9.818;2023-08-08T10:37:40;16.50;99.90
1948;DHT22;974;52.400;9.818;2023-08-08T10:40:09;16.60;99.90
1948;DHT22;974;52.400;9.818;2023-08-08T10:42:44;16.70;99.90
1948;DHT22;974;52.400;9.818;2023-08-08T10:45:15;16.90;99.90
1948;DHT22;974;52.400;9.818;2023-08-08T10:47:42;17.20;99.90
1948;DHT22;974;52.400;9.818;2023-08-08T10:55:25;18.20;99.90
1948;DHT22;974;52.400;9.818;2023-08-08T10:58:09;18.40;99.90
1948;DHT22;974;52.400;9.818;2023-08-08T11:00:38;19.10;99.90
1948;DHT22;974;52.400;9.818;2023-08-08T11:03:05;19.50;99.90
1948;DHT22;974;52.400;9.818;2023-08-08T11:05:32;19.80;99.90
1948;DHT22;974;52.400;9.818;2023-08-08T11:07:59;20.00;99.90
1948;DHT22;974;52.400;9.818;2023-08-08T11:10:26;20.10;99.90
1948;DHT22;974;52.400;9.818;2023-08-08T11:15:23;20.00;99.90
1948;DHT22;974;52.400;9.818;2023-08-08T11:17:49;19.60;99.90
1948;DHT22;974;52.400;9.818;2023-08-08T11:20:18;19.30;99.90
1948;DHT22;974;52.400;9.818;2023-08-08T11:22:43;19.30;99.90
1948;DHT22;974;52.400;9.818;2023-08-08T11:25:14;19.10;99.90
1948;DHT22;974;52.400;9.818;2023-08-08T11:27:51;19.10;99.90
1948;DHT22;974;52.400;9.818;2023-08-08T11:30:17;19.50;99.90
1948;DHT22;974;52.400;9.818;2023-08-08T11:32:50;20.20;99.90
1948;DHT22;974;52.400;9.818;2023-08-08T11:35:22;20.70;99.90
1948;DHT22;974;52.400;9.818;2023-08-08T11:37:53;20.80;99.90
1948;DHT22;974;52.400;9.818;2023-08-08T11:40:25;20.70;99.90
1948;DHT22;974;52.400;9.818;2023-08-08T11:42:52;20.20;99.90
1948;DHT22;974;52.400;9.818;2023-08-08T11:45:19;19.90;99.90
1948;DHT22;974;52.400;9.818;2023-08-08T11:47:49;19.90;99.90
1948;DHT22;974;52.400;9.818;2023-08-08T11:50:14;19.60;99.90
1948;DHT22;974;52.400;9.818;2023-08-08T11:52:42;19.40;99.90
1948;DHT22;974;52.400;9.818;2023-08-08T11:55:09;19.00;99.90
1948;DHT22;974;52.400;9.818;2023-08-08T11:57:36;18.80;99.90
1948;DHT22;974;52.400;9.818;2023-08-08T12:00:10;18.60;99.90
1948;DHT22;974;52.400;9.818;2023-08-08T12:02:42;18.50;99.90
1948;DHT22;974;52.400;9.818;2023-08-08T12:05:13;18.30;99.90
1948;DHT22;974;52.400;9.818;2023-08-08T12:07:40;18.20;99.90
1948;DHT22;974;52.400;9.818;2023-08-08T12:10:20;21.90;99.90
1948;DHT22;974;52.400;9.818;2023-08-08T12:12:46;20.40;99.90
1948;DHT22;974;52.400;9.818;2023-08-08T12:15:13;19.70;99.90
1948;DHT22;974;52.400;9.818;2023-08-08T12:17:39;19.40;99.90
1948;DHT22;974;52.400;9.818;2023-08-08T12:20:06;19.00;99.90
1948;DHT22;974;52.400;9.818;2023-08-08T12:22:32;18.90;99.90
1948;DHT22;974;52.400;9.818;2023-08-08T12:24:58;18.70;99.90
1948;DHT22;974;52.400;9.818;2023-08-08T12:27:24;18.70;99.90
1948;DHT22;974;52.400;9.818;2023-08-08T12:29:49;18.70;99.90
1948;DHT22;974;52.400;9.818;2023-08-08T12:32:15;18.90;99.90
1948;DHT22;974;52.400;9.818;2023-08-08T12:34:43;19.30;99.90
1948;DHT22;974;52.400;9.818;2023-08-08T12:37:09;19.50;99.90
1948;DHT22;974;52.400;9.818;2023-08-08T12:39:35;19.40;99.90
1948;DHT22;974;52.400;9.818;2023-08-08T12:42:00;19.20;99.90
1948;DHT22;974;52.400;9.818;2023-08-08T12:44:26;19.00;99.90
1948;DHT22;974;52.400;9.818;2023-08-08T12:46:51;18.90;99.90
1948;DHT22;974;52.400;9.818;2023-08-08T12:49:17;18.80;99.90
1948;DHT22;974;52.400;9.818;2023-08-08T12:51:43;18.70;99.90
1948;DHT22;974;52.400;9.818;2023-08-08T12:54:11;18.60;99.90
1948;DHT22;974;52.400;9.818;2023-08-08T12:56:37;18.60;99.90
1948;DHT22;974;52.400;9.818;2023-08-08T12:59:02;18.50;99.90
1948;DHT22;974;52.400;9.818;2023-08-08T13:01:28;18.20;99.90
1948;DHT22;974;52.400;9.818;2023-08-08T13:03:54;18.20;99.90
1948;DHT22;974;52.400;9.818;2023-08-08T13:06:19;18.10;99.90
1948;DHT22;974;52.400;9.818;2023-08-08T13:08:45;18.00;99.90
1948;DHT22;974;52.400;9.818;2023-08-08T13:11:10;17.60;99.90
1948;DHT22;974;52.400;9.818;2023-08-08T13:13:36;17.00;99.90
1948;DHT22;974;52.400;9.818;2023-08-08T13:16:01;16.50;99.90
1948;DHT22;974;52.400;9.818;2023-08-08T13:18:28;16.10;99.90
1948;DHT22;974;52.400;9.818;2023-08-08T13:20:54;15.90;99.90
1948;DHT22;974;52.400;9.818;2023-08-08T13:23:19;15.80;99.90
1948;DHT22;974;52.400;9.818;2023-08-08T13:25:45;15.70;99.90
1948;DHT22;974;52.400;9.818;2023-08-08T13:28:11;15.60;99.90
1948;DHT22;974;52.400;9.818;2023-08-08T13:30:37;15.70;99.90
1948;DHT22;974;52.400;9.818;2023-08-08T13:33:03;15.70;99.90
1948;DHT22;974;52.400;9.818;2023-08-08T13:35:32;15.70;99.90
1948;DHT22;974;52.400;9.818;2023-08-08T13:37:57;15.70;99.90
1948;DHT22;974;52.400;9.818;2023-08-08T13:40:26;15.80;99.90
1948;DHT22;974;52.400;9.818;2023-08-08T13:42:52;16.00;99.90
1948;DHT22;974;52.400;9.818;2023-08-08T13:45:18;16.20;99.90
1948;DHT22;974;52.400;9.818;2023-08-08T13:47:45;16.40;99.90
1948;DHT22;974;52.400;9.818;2023-08-08T13:50:14;16.60;99.90
1948;DHT22;974;52.400;9.818;2023-08-08T13:52:40;16.60;99.90
1948;DHT22;974;52.400;9.818;2023-08-08T13:55:07;16.70;99.90
1948;DHT22;974;52.400;9.818;2023-08-08T13:57:33;16.70;99.90
1948;DHT22;974;52.400;9.818;2023-08-08T13:59:58;16.50;99.90
1948;DHT22;974;52.400;9.818;2023-08-08T14:02:27;16.50;99.90
1948;DHT22;974;52.400;9.818;2023-08-08T14:04:52;16.40;99.90
1948;DHT22;974;52.400;9.818;2023-08-08T14:07:18;16.40;99.90
1948;DHT22;974;52.400;9.818;2023-08-08T14:09:44;16.30;99.90
1948;DHT22;974;52.400;9.818;2023-08-08T14:12:10;16.20;99.90
1948;DHT22;974;52.400;9.818;2023-08-08T14:14:35;16.10;99.90
1948;DHT22;974;52.400;9.818;2023-08-08T14:17:01;16.00;99.90
1948;DHT22;974;52.400;9.818;2023-08-08T14:19:26;15.90;99.90
1948;DHT22;974;52.400;9.818;2023-08-08T14:21:52;16.00;99.90
1948;DHT22;974;52.400;9.818;2023-08-08T14:24:17;16.00;99.90
1948;DHT22;974;52.400;9.818;2023-08-08T14:26:43;16.00;99.90
1948;DHT22;974;52.400;9.818;2023-08-08T14:29:09;16.10;99.90
1948;DHT22;974;52.400;9.818;2023-08-08T14:31:34;16.20;99.90
1948;DHT22;974;52.400;9.818;2023-08-08T14:34:00;16.30;99.90
1948;DHT22;974;52.400;9.818;2023-08-08T14:36:25;16.40;99.90
1948;DHT22;974;52.400;9.818;2023-08-08T14:38:51;16.50;99.90
1948;DHT22;974;52.400;9.818;2023-08-08T14:41:20;16.50;99.90
1948;DHT22;974;52.400;9.818;2023-08-08T14:43:46;16.60;99.90
1948;DHT22;974;52.400;9.818;2023-08-08T14:46:11;16.60;99.90
1948;DHT22;974;52.400;9.818;2023-08-08T14:48:37;16.70;99.90
1948;DHT22;974;52.400;9.818;2023-08-08T14:51:03;16.70;99.90
1948;DHT22;974;52.400;9.818;2023-08-08T14:53:29;16.50;99.90
1948;DHT22;974;52.400;9.818;2023-08-08T14:55:54;16.30;99.90
1948;DHT22;974;52.400;9.818;2023-08-08T14:58:20;16.00;99.90
1948;DHT22;974;52.400;9.818;2023-08-08T15:00:45;15.80;99.90
1948;DHT22;974;52.400;9.818;2023-08-08T15:03:11;15.70;99.90
1948;DHT22;974;52.400;9.818;2023-08-08T15:05:39;15.60;99.90
1948;DHT22;974;52.400;9.818;2023-08-08T15:08:06;15.50;99.90
1948;DHT22;974;52.400;9.818;2023-08-08T15:10:32;15.50;99.90
1948;DHT22;974;52.400;9.818;2023-08-08T15:12:57;15.50;99.90
1948;DHT22;974;52.400;9.818;2023-08-08T15:15:23;15.60;99.90
1948;DHT22;974;52.400;9.818;2023-08-08T15:17:51;15.60;99.90
1948;DHT22;974;52.400;9.818;2023-08-08T15:20:20;15.60;99.90
1948;DHT22;974;52.400;9.818;2023-08-08T15:22:48;15.70;99.90
1948;DHT22;974;52.400;9.818;2023-08-08T15:25:14;15.80;99.90
1948;DHT22;974;52.400;9.818;2023-08-08T15:27:43;15.80;99.90
1948;DHT22;974;52.400;9.818;2023-08-08T15:30:12;15.80;99.90
1948;DHT22;974;52.400;9.818;2023-08-08T15:32:37;15.80;99.90
1948;DHT22;974;52.400;9.818;2023-08-08T15:35:03;15.90;99.90
1948;DHT22;974;52.400;9.818;2023-08-08T15:37:29;15.90;99.90
1948;DHT22;974;52.400;9.818;2023-08-08T15:39:57;15.90;99.90
1948;DHT22;974;52.400;9.818;2023-08-08T15:42:24;16.00;99.90
1948;DHT22;974;52.400;9.818;2023-08-08T15:44:50;16.00;99.90
1948;DHT22;974;52.400;9.818;2023-08-08T15:47:16;16.00;99.90
1948;DHT22;974;52.400;9.818;2023-08-08T15:49:42;16.00;99.90
1948;DHT22;974;52.400;9.818;2023-08-08T15:52:08;16.10;99.90
1948;DHT22;974;52.400;9.818;2023-08-08T15:54:33;16.10;99.90
1948;DHT22;974;52.400;9.818;2023-08-08T15:56:59;16.10;99.90
1948;DHT22;974;52.400;9.818;2023-08-08T15:59:26;16.10;99.90
1948;DHT22;974;52.400;9.818;2023-08-08T16:01:55;16.20;99.90
1948;DHT22;974;52.400;9.818;2023-08-08T16:04:21;16.30;99.90
1948;DHT22;974;52.400;9.818;2023-08-08T16:06:46;16.30;99.90
1948;DHT22;974;52.400;9.818;2023-08-08T16:09:15;16.40;99.90
1948;DHT22;974;52.400;9.818;2023-08-08T16:11:41;16.40;99.90
1948;DHT22;974;52.400;9.818;2023-08-08T16:14:07;16.40;99.90
1948;DHT22;974;52.400;9.818;2023-08-08T16:16:32;16.50;99.90
1948;DHT22;974;52.400;9.818;2023-08-08T16:19:01;16.50;99.90
1948;DHT22;974;52.400;9.818;2023-08-08T16:21:26;16.50;99.90